createdAt,value
2018-07-30T00:00:23.843Z,19.60
2018-07-30T00:02:50.480Z,19.60
2018-07-30T00:05:17.335Z,19.50
2018-07-30T00:07:43.981Z,19.50
2018-07-30T00:10:10.694Z,19.50
2018-07-30T00:12:37.487Z,19.30
2018-07-30T00:15:04.160Z,19.30
2018-07-30T00:17:31.570Z,19.30
2018-07-30T00:19:59.171Z,19.20
2018-07-30T00:22:26.581Z,19.20
2018-07-30T00:24:53.968Z,19.20
2018-07-30T00:27:21.539Z,19.20
2018-07-30T00:29:48.913Z,19.10
2018-07-30T00:32:15.566Z,19.10
2018-07-30T00:34:42.471Z,19.10
2018-07-30T00:37:09.193Z,19.00
2018-07-30T00:39:35.934Z,19.00
2018-07-30T00:42:03.493Z,18.90
2018-07-30T00:44:30.168Z,18.90
2018-07-30T00:46:56.820Z,18.90
2018-07-30T00:49:23.757Z,18.80
2018-07-30T00:51:50.440Z,18.80
2018-07-30T00:54:17.200Z,18.70
2018-07-30T00:56:44.976Z,18.70
2018-07-30T00:59:12.572Z,18.70
2018-07-30T01:01:39.248Z,18.70
2018-07-30T01:04:06.947Z,18.70
2018-07-30T01:06:34.613Z,18.70
2018-07-30T01:09:04.066Z,18.60
2018-07-30T01:11:31.276Z,18.70
2018-07-30T01:13:58.150Z,18.60
2018-07-30T01:16:25.755Z,18.50
2018-07-30T01:18:53.210Z,18.40
2018-07-30T01:21:19.916Z,18.40
2018-07-30T01:23:46.646Z,18.50
2018-07-30T01:26:13.500Z,18.50
2018-07-30T01:28:40.168Z,18.40
2018-07-30T01:31:06.864Z,18.40
2018-07-30T01:33:33.693Z,18.30
2018-07-30T01:36:00.368Z,18.30
2018-07-30T01:38:27.005Z,18.40
2018-07-30T01:40:53.803Z,18.30
2018-07-30T01:43:20.446Z,18.30
2018-07-30T01:45:47.079Z,18.30
2018-07-30T01:48:13.824Z,18.30
2018-07-30T01:50:40.484Z,18.30
2018-07-30T01:53:07.166Z,18.30
2018-07-30T01:55:34.808Z,18.30
2018-07-30T01:58:01.410Z,18.20
2018-07-30T02:00:28.079Z,18.30
2018-07-30T02:02:54.927Z,18.30
2018-07-30T02:05:21.587Z,18.20
2018-07-30T02:07:49.028Z,18.30
2018-07-30T02:10:15.763Z,18.30
2018-07-30T02:12:42.434Z,18.40
2018-07-30T02:15:09.114Z,18.30
2018-07-30T02:17:35.830Z,18.50
2018-07-30T02:20:02.556Z,18.50
2018-07-30T02:22:29.229Z,18.50
2018-07-30T02:24:55.916Z,18.50
2018-07-30T02:27:22.591Z,18.60
2018-07-30T02:29:49.302Z,18.60
2018-07-30T02:32:16.871Z,18.70
2018-07-30T02:34:44.302Z,18.80
2018-07-30T02:37:10.988Z,18.80
2018-07-30T02:39:37.792Z,18.90
2018-07-30T02:42:04.461Z,18.90
2018-07-30T02:44:31.162Z,19.00
2018-07-30T02:46:57.987Z,19.10
2018-07-30T02:49:24.625Z,19.10
2018-07-30T02:51:51.300Z,19.20
2018-07-30T02:54:18.082Z,19.30
2018-07-30T02:56:44.728Z,19.40
2018-07-30T02:59:11.385Z,19.50
2018-07-30T03:01:38.140Z,19.60
2018-07-30T03:04:04.803Z,19.70
2018-07-30T03:06:32.239Z,19.80
2018-07-30T03:08:59.058Z,19.80
2018-07-30T03:11:25.759Z,19.90
2018-07-30T03:13:52.446Z,19.90
2018-07-30T03:16:19.171Z,19.90
2018-07-30T03:18:45.872Z,20.00
2018-07-30T03:21:12.530Z,19.90
2018-07-30T03:23:40.110Z,19.90
2018-07-30T03:26:06.803Z,19.90
2018-07-30T03:28:48.424Z,19.90
2018-07-30T03:31:15.105Z,20.00
2018-07-30T03:33:41.769Z,20.10
2018-07-30T03:36:08.579Z,20.10
2018-07-30T03:38:35.255Z,20.20
2018-07-30T03:41:02.664Z,20.30
2018-07-30T03:43:29.400Z,20.30
2018-07-30T03:45:56.096Z,20.40
2018-07-30T03:48:22.748Z,20.40
2018-07-30T03:50:49.582Z,20.50
2018-07-30T03:53:16.234Z,20.50
2018-07-30T03:55:42.852Z,20.60
2018-07-30T03:58:09.647Z,20.70
2018-07-30T04:00:36.312Z,20.80
2018-07-30T04:03:02.972Z,20.90
2018-07-30T04:05:29.659Z,20.90
2018-07-30T04:07:56.403Z,20.90
2018-07-30T04:10:23.038Z,20.90
2018-07-30T04:12:49.898Z,20.90
2018-07-30T04:15:16.542Z,21.00
2018-07-30T04:17:43.933Z,21.10
2018-07-30T04:20:10.637Z,21.00
2018-07-30T04:22:37.279Z,21.10
2018-07-30T04:25:04.005Z,21.10
2018-07-30T04:27:30.796Z,21.10
2018-07-30T04:29:57.476Z,21.20
2018-07-30T04:32:24.118Z,21.20
2018-07-30T04:34:51.062Z,21.40
2018-07-30T04:37:17.719Z,21.50
2018-07-30T04:39:45.155Z,21.40
2018-07-30T04:42:11.999Z,21.40
2018-07-30T04:44:38.640Z,21.40
2018-07-30T04:47:05.293Z,21.40
2018-07-30T04:49:31.983Z,21.40
2018-07-30T04:51:58.667Z,21.40
2018-07-30T04:54:25.289Z,21.30
2018-07-30T04:56:52.037Z,21.50
2018-07-30T04:59:18.726Z,21.50
2018-07-30T05:01:45.409Z,21.40
2018-07-30T05:04:12.236Z,21.40
2018-07-30T05:06:38.885Z,21.40
2018-07-30T05:09:05.548Z,21.40
2018-07-30T05:11:32.259Z,21.40
2018-07-30T05:13:58.925Z,21.40
2018-07-30T05:16:25.584Z,21.50
2018-07-30T05:18:53.051Z,21.80
2018-07-30T05:21:19.729Z,21.80
2018-07-30T05:23:46.389Z,21.90
2018-07-30T05:26:13.184Z,22.10
2018-07-30T05:28:39.822Z,22.40
2018-07-30T05:31:06.495Z,22.60
2018-07-30T05:33:33.212Z,22.90
2018-07-30T05:35:59.874Z,23.00
2018-07-30T05:38:26.538Z,22.80
2018-07-30T05:40:53.347Z,22.80
2018-07-30T05:43:20.000Z,22.80
2018-07-30T05:45:46.646Z,22.70
2018-07-30T05:48:13.477Z,23.10
2018-07-30T05:50:40.126Z,23.40
2018-07-30T05:53:06.788Z,23.60
2018-07-30T05:55:34.451Z,23.60
2018-07-30T05:58:01.871Z,23.60
2018-07-30T06:00:28.610Z,23.60
2018-07-30T06:02:55.397Z,23.50
2018-07-30T06:05:22.871Z,23.80
2018-07-30T06:07:49.720Z,24.10
2018-07-30T06:10:16.530Z,24.30
2018-07-30T06:12:43.931Z,24.30
2018-07-30T06:15:10.656Z,24.30
2018-07-30T06:17:37.881Z,24.00
2018-07-30T06:20:04.746Z,23.60
2018-07-30T06:22:31.397Z,23.70
2018-07-30T06:24:58.207Z,23.60
2018-07-30T06:27:24.961Z,23.60
2018-07-30T06:29:51.634Z,23.80
2018-07-30T06:32:19.989Z,23.80
2018-07-30T06:34:48.041Z,24.10
2018-07-30T06:37:14.851Z,24.00
2018-07-30T06:39:41.583Z,24.20
2018-07-30T06:42:08.245Z,24.40
2018-07-30T06:44:35.633Z,25.00
2018-07-30T06:47:02.441Z,25.00
2018-07-30T06:49:29.408Z,25.20
2018-07-30T06:51:56.438Z,25.50
2018-07-30T06:54:23.498Z,25.50
2018-07-30T06:56:50.171Z,25.60
2018-07-30T06:59:16.871Z,25.40
2018-07-30T07:01:45.168Z,24.90
2018-07-30T07:04:12.839Z,24.90
2018-07-30T07:06:40.253Z,24.80
2018-07-30T07:09:07.820Z,25.30
2018-07-30T07:11:35.224Z,25.30
2018-07-30T07:14:01.925Z,25.30
2018-07-30T07:16:29.546Z,25.90
2018-07-30T07:18:56.170Z,25.90
2018-07-30T07:21:22.850Z,26.20
2018-07-30T07:23:49.780Z,26.00
2018-07-30T07:26:17.208Z,26.00
2018-07-30T07:28:44.638Z,25.70
2018-07-30T07:31:11.457Z,25.70
2018-07-30T07:33:38.858Z,25.70
2018-07-30T07:36:05.602Z,25.70
2018-07-30T07:41:21.072Z,25.40
2018-07-30T07:43:47.871Z,25.40
2018-07-30T07:46:15.500Z,25.10
2018-07-30T07:48:42.184Z,25.40
2018-07-30T07:51:09.780Z,25.90
2018-07-30T07:53:36.438Z,25.80
2018-07-30T07:56:03.376Z,26.00
2018-07-30T07:58:30.204Z,26.40
2018-07-30T08:00:56.914Z,27.20
2018-07-30T08:03:24.548Z,28.40
2018-07-30T08:05:51.280Z,28.40
2018-07-30T08:08:17.940Z,29.40
2018-07-30T08:10:45.371Z,29.10
2018-07-30T08:13:12.765Z,29.00
2018-07-30T08:15:39.433Z,29.60
2018-07-30T08:18:06.232Z,30.10
2018-07-30T08:20:33.133Z,29.70
2018-07-30T08:22:59.818Z,29.50
2018-07-30T08:25:26.528Z,29.60
2018-07-30T08:27:53.289Z,29.50
2018-07-30T08:30:20.294Z,30.10
2018-07-30T08:32:47.010Z,30.60
2018-07-30T08:35:13.727Z,30.30
2018-07-30T08:37:40.388Z,30.20
2018-07-30T08:40:07.192Z,30.30
2018-07-30T08:42:34.076Z,30.80
2018-07-30T08:45:00.842Z,30.60
2018-07-30T08:47:27.650Z,29.70
2018-07-30T08:49:55.195Z,29.10
2018-07-30T08:52:22.605Z,29.40
2018-07-30T08:54:49.310Z,29.40
2018-07-30T08:57:16.190Z,29.30
2018-07-30T08:59:42.884Z,29.10
2018-07-30T09:02:09.647Z,28.40
2018-07-30T09:04:36.427Z,28.10
2018-07-30T09:07:03.141Z,28.40
2018-07-30T09:09:29.875Z,28.60
2018-07-30T09:11:56.886Z,28.30
2018-07-30T09:14:25.874Z,28.20
2018-07-30T09:16:52.519Z,28.20
2018-07-30T09:19:19.263Z,28.40
2018-07-30T09:21:47.340Z,28.20
2018-07-30T09:24:15.682Z,28.70
2018-07-30T09:26:42.406Z,28.60
2018-07-30T09:29:09.069Z,28.80
2018-07-30T09:31:35.809Z,29.30
2018-07-30T09:34:02.592Z,30.20
2018-07-30T09:36:29.278Z,30.80
2018-07-30T09:38:55.955Z,31.20
2018-07-30T09:41:22.829Z,30.80
2018-07-30T09:43:49.797Z,30.40
2018-07-30T09:46:16.449Z,30.00
2018-07-30T09:48:43.241Z,30.00
2018-07-30T09:51:09.930Z,29.90
2018-07-30T09:53:36.665Z,29.80
2018-07-30T09:56:03.619Z,30.40
2018-07-30T09:58:30.257Z,30.20
2018-07-30T10:00:56.945Z,30.10
2018-07-30T10:03:23.739Z,30.40
2018-07-30T10:05:50.396Z,30.70
2018-07-30T10:08:17.867Z,30.70
2018-07-30T10:10:45.489Z,30.50
2018-07-30T10:13:12.247Z,30.40
2018-07-30T10:15:39.630Z,31.00
2018-07-30T10:18:06.474Z,30.90
2018-07-30T10:20:33.098Z,30.60
2018-07-30T10:23:00.556Z,30.30
2018-07-30T10:25:28.104Z,29.90
2018-07-30T10:27:55.623Z,29.70
2018-07-30T10:30:22.340Z,29.70
2018-07-30T10:32:49.384Z,29.70
2018-07-30T10:35:16.125Z,29.30
2018-07-30T10:37:42.869Z,30.00
2018-07-30T10:40:09.811Z,29.60
2018-07-30T10:42:36.655Z,29.60
2018-07-30T10:45:03.395Z,29.70
2018-07-30T10:47:30.213Z,29.90
2018-07-30T10:49:57.693Z,30.00
2018-07-30T10:52:24.408Z,29.90
2018-07-30T10:54:52.096Z,29.10
2018-07-30T10:57:18.816Z,29.10
2018-07-30T10:59:46.300Z,29.40
2018-07-30T11:02:13.152Z,29.40
2018-07-30T11:04:40.087Z,29.70
2018-07-30T11:07:06.924Z,29.50
2018-07-30T11:09:33.871Z,29.80
2018-07-30T11:12:00.611Z,30.20
2018-07-30T11:14:27.350Z,29.90
2018-07-30T11:16:54.196Z,29.90
2018-07-30T11:19:20.942Z,29.60
2018-07-30T11:21:47.672Z,29.60
2018-07-30T11:24:14.370Z,29.80
2018-07-30T11:26:41.051Z,30.20
2018-07-30T11:29:07.815Z,29.70
2018-07-30T11:31:34.736Z,29.60
2018-07-30T11:34:01.478Z,29.60
2018-07-30T11:36:28.217Z,29.70
2018-07-30T11:38:55.044Z,29.60
2018-07-30T11:41:21.703Z,29.40
2018-07-30T11:43:48.379Z,29.30
2018-07-30T11:46:15.200Z,29.30
2018-07-30T11:48:41.893Z,29.30
2018-07-30T11:51:09.483Z,29.00
2018-07-30T11:53:36.323Z,28.90
2018-07-30T11:56:03.044Z,28.40
2018-07-30T11:58:29.705Z,28.30
2018-07-30T12:00:56.555Z,28.20
2018-07-30T12:03:23.211Z,28.20
2018-07-30T12:05:49.831Z,28.00
2018-07-30T12:08:16.771Z,28.00
2018-07-30T12:10:43.482Z,28.20
2018-07-30T12:13:10.962Z,28.20
2018-07-30T12:15:37.909Z,28.20
2018-07-30T12:18:04.670Z,28.30
2018-07-30T12:20:31.377Z,28.50
2018-07-30T12:22:58.110Z,28.40
2018-07-30T12:25:25.541Z,28.10
2018-07-30T12:27:52.202Z,28.00
2018-07-30T12:30:19.774Z,28.30
2018-07-30T12:32:46.386Z,28.30
2018-07-30T12:35:13.890Z,28.30
2018-07-30T12:37:40.803Z,28.20
2018-07-30T12:40:07.603Z,28.30
2018-07-30T12:42:34.301Z,27.90
2018-07-30T12:45:01.199Z,27.90
2018-07-30T12:47:27.905Z,28.00
2018-07-30T12:49:54.602Z,27.90
2018-07-30T12:52:22.155Z,27.50
2018-07-30T12:54:49.554Z,27.30
2018-07-30T12:57:16.277Z,27.30
2018-07-30T12:59:43.092Z,27.30
2018-07-30T13:02:10.477Z,27.30
2018-07-30T13:04:37.160Z,27.30
2018-07-30T13:07:04.365Z,27.30
2018-07-30T13:09:31.322Z,27.30
2018-07-30T13:11:58.122Z,27.30
2018-07-30T13:14:25.669Z,27.40
2018-07-30T13:16:52.345Z,27.40
2018-07-30T13:19:19.029Z,27.40
2018-07-30T13:21:45.764Z,27.40
2018-07-30T13:24:12.438Z,27.80
2018-07-30T13:26:39.251Z,27.90
2018-07-30T13:29:06.861Z,28.20
2018-07-30T13:31:33.659Z,28.20
2018-07-30T13:34:00.398Z,28.10
2018-07-30T13:36:28.018Z,28.20
2018-07-30T13:38:54.697Z,28.10
2018-07-30T13:41:21.393Z,28.10
2018-07-30T13:43:48.120Z,28.20
2018-07-30T13:46:14.830Z,28.30
2018-07-30T13:48:41.515Z,28.10
2018-07-30T13:51:08.244Z,28.00
2018-07-30T13:53:34.939Z,28.20
2018-07-30T13:56:02.078Z,28.30
2018-07-30T13:58:28.892Z,28.50
2018-07-30T14:00:55.568Z,28.90
2018-07-30T14:03:22.229Z,29.30
2018-07-30T14:05:48.926Z,29.30
2018-07-30T14:08:15.580Z,29.60
2018-07-30T14:10:42.286Z,29.10
2018-07-30T14:13:09.075Z,29.30
2018-07-30T14:15:35.985Z,29.70
2018-07-30T14:18:02.768Z,29.70
2018-07-30T14:20:30.317Z,29.50
2018-07-30T14:22:56.970Z,29.50
2018-07-30T14:25:23.630Z,29.40
2018-07-30T14:27:50.496Z,29.20
2018-07-30T14:30:17.169Z,29.00
2018-07-30T14:35:54.548Z,28.80
2018-07-30T14:38:21.371Z,28.60
2018-07-30T14:40:48.842Z,28.60
2018-07-30T14:43:17.314Z,28.50
2018-07-30T14:45:44.300Z,28.50
2018-07-30T14:48:10.996Z,28.90
2018-07-30T14:50:37.683Z,28.80
2018-07-30T14:53:04.520Z,28.80
2018-07-30T14:55:31.930Z,28.30
2018-07-30T14:57:58.599Z,28.20
2018-07-30T15:00:25.318Z,28.10
2018-07-30T15:02:52.760Z,27.90
2018-07-30T15:05:19.489Z,27.90
2018-07-30T15:07:46.268Z,27.70
2018-07-30T15:10:13.012Z,27.60
2018-07-30T15:12:39.800Z,27.60
2018-07-30T15:15:06.679Z,27.90
2018-07-30T15:17:33.373Z,27.80
2018-07-30T15:20:00.255Z,27.80
2018-07-30T15:22:27.113Z,27.80
2018-07-30T15:24:53.901Z,27.70
2018-07-30T15:27:20.610Z,27.80
2018-07-30T15:29:48.201Z,28.00
2018-07-30T15:32:15.186Z,28.00
2018-07-30T15:34:41.868Z,28.10
2018-07-30T15:37:08.748Z,28.00
2018-07-30T15:39:36.304Z,28.10
2018-07-30T15:42:03.163Z,28.10
2018-07-30T15:44:30.424Z,28.00
2018-07-30T15:46:57.130Z,27.90
2018-07-30T15:49:24.249Z,27.80
2018-07-30T15:51:51.101Z,27.90
2018-07-30T15:54:17.969Z,27.90
2018-07-30T15:56:44.775Z,27.90
2018-07-30T15:59:12.645Z,27.70
2018-07-30T16:01:39.345Z,27.60
2018-07-30T16:04:06.037Z,27.40
2018-07-30T16:06:32.922Z,27.30
2018-07-30T16:08:59.730Z,27.20
2018-07-30T16:11:26.459Z,27.20
2018-07-30T16:13:53.374Z,27.20
2018-07-30T16:16:20.081Z,27.00
2018-07-30T16:18:46.786Z,27.10
2018-07-30T16:21:14.438Z,26.80
2018-07-30T16:23:41.152Z,26.80
2018-07-30T16:26:07.857Z,26.70
2018-07-30T16:28:34.689Z,26.90
2018-07-30T16:31:01.458Z,27.00
2018-07-30T16:33:28.140Z,27.00
2018-07-30T16:35:55.690Z,26.90
2018-07-30T16:38:22.650Z,26.80
2018-07-30T16:40:49.895Z,26.60
2018-07-30T16:43:22.255Z,26.70
2018-07-30T16:45:49.465Z,26.60
2018-07-30T16:48:16.237Z,26.50
2018-07-30T16:50:43.124Z,26.50
2018-07-30T16:53:10.110Z,26.60
2018-07-30T16:55:37.137Z,26.40
2018-07-30T16:58:04.684Z,26.30
2018-07-30T17:00:31.543Z,26.20
2018-07-30T17:02:58.286Z,26.10
2018-07-30T17:05:25.268Z,26.10
2018-07-30T17:07:52.056Z,26.10
2018-07-30T17:10:18.908Z,26.10
2018-07-30T17:12:46.658Z,26.00
2018-07-30T17:15:13.425Z,25.90
2018-07-30T17:17:40.169Z,25.80
2018-07-30T17:20:07.009Z,25.70
2018-07-30T17:22:33.696Z,25.80
2018-07-30T17:25:01.192Z,25.80
2018-07-30T17:27:27.988Z,25.70
2018-07-30T17:29:54.869Z,25.70
2018-07-30T17:32:21.568Z,25.80
2018-07-30T17:34:49.160Z,25.70
2018-07-30T17:37:15.857Z,25.60
2018-07-30T17:39:42.584Z,25.60
2018-07-30T17:42:10.064Z,25.60
2018-07-30T17:44:37.603Z,25.60
2018-07-30T17:47:04.370Z,25.60
2018-07-30T17:49:31.688Z,25.40
2018-07-30T17:51:59.341Z,25.20
2018-07-30T17:54:26.197Z,25.10
2018-07-30T17:56:52.965Z,25.10
2018-07-30T17:59:20.554Z,24.80
2018-07-30T18:01:47.320Z,24.80
2018-07-30T18:04:14.578Z,24.80
2018-07-30T18:06:42.639Z,24.80
2018-07-30T18:09:10.142Z,24.60
2018-07-30T18:11:37.935Z,24.50
2018-07-30T18:14:04.742Z,24.50
2018-07-30T18:16:32.529Z,24.50
2018-07-30T18:18:59.414Z,24.50
2018-07-30T18:21:26.118Z,24.30
2018-07-30T18:23:52.928Z,24.20
2018-07-30T18:26:20.660Z,24.10
2018-07-30T18:28:48.065Z,24.10
2018-07-30T18:31:15.617Z,24.10
2018-07-30T18:33:43.723Z,24.10
2018-07-30T18:36:11.917Z,24.00
2018-07-30T18:38:38.626Z,24.00
2018-07-30T18:41:05.766Z,24.10
2018-07-30T18:43:32.481Z,24.00
2018-07-30T18:45:59.282Z,24.00
2018-07-30T18:48:26.087Z,24.10
2018-07-30T18:50:53.785Z,24.10
2018-07-30T18:53:20.635Z,24.00
2018-07-30T18:55:47.768Z,24.00
2018-07-30T18:58:14.528Z,24.00
2018-07-30T19:00:41.411Z,24.00
2018-07-30T19:03:09.235Z,24.10
2018-07-30T19:05:36.090Z,24.00
2018-07-30T19:08:03.048Z,23.90
2018-07-30T19:10:30.004Z,23.90
2018-07-30T19:12:57.454Z,23.90
2018-07-30T19:15:24.161Z,23.80
2018-07-30T19:17:51.027Z,23.80
2018-07-30T19:20:17.747Z,23.70
2018-07-30T19:22:44.412Z,23.70
2018-07-30T19:25:13.001Z,23.50
2018-07-30T19:27:39.690Z,23.50
2018-07-30T19:30:06.717Z,23.50
2018-07-30T19:32:34.304Z,23.40
2018-07-30T19:35:01.180Z,23.40
2018-07-30T19:37:28.062Z,23.40
2018-07-30T19:39:55.555Z,23.30
2018-07-30T19:42:23.602Z,23.20
2018-07-30T19:44:50.876Z,23.20
2018-07-30T19:47:17.693Z,23.20
2018-07-30T19:49:45.288Z,23.20
2018-07-30T19:52:12.019Z,23.10
2018-07-30T19:54:38.795Z,23.10
2018-07-30T19:57:05.921Z,23.10
2018-07-30T19:59:32.562Z,23.10
2018-07-30T20:01:59.455Z,23.00
2018-07-30T20:04:26.345Z,22.90
2018-07-30T20:06:53.148Z,22.90
2018-07-30T20:09:20.390Z,22.90
2018-07-30T20:11:47.224Z,22.90
2018-07-30T20:14:16.116Z,22.80
2018-07-30T20:16:42.868Z,22.70
2018-07-30T20:19:09.525Z,22.80
2018-07-30T20:21:36.270Z,22.80
2018-07-30T20:24:03.147Z,22.80
2018-07-30T20:26:30.204Z,22.70
2018-07-30T20:28:57.766Z,22.70
2018-07-30T20:31:25.646Z,22.60
2018-07-30T20:33:52.347Z,22.60
2018-07-30T20:36:19.062Z,22.60
2018-07-30T20:38:46.483Z,22.50
2018-07-30T20:41:13.271Z,22.60
2018-07-30T20:43:40.192Z,22.50
2018-07-30T20:46:07.031Z,22.60
2018-07-30T20:48:34.473Z,22.60
2018-07-30T20:51:01.136Z,22.60
2018-07-30T20:53:28.601Z,22.50
2018-07-30T20:55:55.318Z,22.50
2018-07-30T20:58:22.713Z,22.50
2018-07-30T21:00:49.424Z,22.40
2018-07-30T21:03:16.847Z,22.40
2018-07-30T21:05:43.538Z,22.40
2018-07-30T21:08:10.381Z,22.50
2018-07-30T21:10:37.072Z,22.40
2018-07-30T21:13:03.771Z,22.40
2018-07-30T21:15:30.564Z,22.30
2018-07-30T21:17:57.529Z,22.30
2018-07-30T21:20:25.002Z,22.20
2018-07-30T21:22:51.846Z,22.20
2018-07-30T21:25:18.910Z,22.20
2018-07-30T21:27:45.667Z,22.20
2018-07-30T21:30:12.494Z,22.20
2018-07-30T21:32:39.220Z,22.20
2018-07-30T21:35:05.903Z,22.20
2018-07-30T21:37:32.751Z,22.20
2018-07-30T21:39:59.506Z,22.10
2018-07-30T21:42:26.955Z,22.10
2018-07-30T21:44:53.719Z,22.10
2018-07-30T21:47:20.498Z,22.10
2018-07-30T21:49:47.410Z,22.10
2018-07-30T21:52:14.897Z,22.10
2018-07-30T21:54:41.569Z,22.00
2018-07-30T21:57:08.318Z,22.00
2018-07-30T21:59:35.482Z,22.10
2018-07-30T22:02:02.286Z,22.00
2018-07-30T22:04:28.972Z,22.00
2018-07-30T22:06:56.571Z,21.90
2018-07-30T22:09:23.334Z,21.90
2018-07-30T22:11:51.073Z,21.90
2018-07-30T22:14:18.987Z,21.90
2018-07-30T22:16:45.928Z,21.80
2018-07-30T22:19:12.710Z,21.90
2018-07-30T22:21:39.498Z,21.80
2018-07-30T22:24:06.195Z,21.80
2018-07-30T22:26:32.928Z,21.80
2018-07-30T22:28:59.746Z,21.80
2018-07-30T22:31:26.437Z,21.70
2018-07-30T22:33:53.128Z,21.70
2018-07-30T22:36:20.777Z,21.70
2018-07-30T22:38:48.255Z,21.70
2018-07-30T22:41:15.014Z,21.70
2018-07-30T22:43:41.959Z,21.70
2018-07-30T22:46:08.763Z,21.70
2018-07-30T22:48:35.655Z,21.60
2018-07-30T22:51:02.518Z,21.60
2018-07-30T22:53:29.236Z,21.40
2018-07-30T22:55:55.949Z,21.60
2018-07-30T22:58:23.541Z,21.40
2018-07-30T23:00:51.129Z,21.30
2018-07-30T23:03:17.884Z,21.30
2018-07-30T23:05:44.797Z,21.30
2018-07-30T23:08:11.800Z,21.30
2018-07-30T23:10:38.562Z,21.20
2018-07-30T23:13:05.249Z,21.20
2018-07-30T23:15:32.116Z,21.20
2018-07-30T23:17:59.521Z,21.10
2018-07-30T23:20:26.203Z,21.00
2018-07-30T23:22:52.958Z,21.00
2018-07-30T23:25:19.701Z,21.00
2018-07-30T23:27:47.137Z,20.90
2018-07-30T23:30:13.884Z,20.90
2018-07-30T23:32:41.362Z,20.90
2018-07-30T23:35:08.068Z,20.80
2018-07-30T23:37:34.840Z,20.80
2018-07-30T23:40:02.421Z,20.80
2018-07-30T23:42:29.737Z,20.80
2018-07-30T23:44:57.683Z,20.70
2018-07-30T23:47:24.538Z,20.70
2018-07-30T23:49:51.278Z,20.70
2018-07-30T23:52:18.037Z,20.70
2018-07-30T23:54:45.997Z,20.60
2018-07-30T23:57:13.216Z,20.60
2018-07-30T23:59:40.323Z,20.60
